createdAt,value
2022-08-23T00:00:46.948Z,15.50
2022-08-23T00:03:36.660Z,15.50
2022-08-23T00:06:25.937Z,15.50
2022-08-23T00:09:14.855Z,15.50
2022-08-23T00:12:21.039Z,15.50
2022-08-23T00:15:13.017Z,15.50
2022-08-23T00:18:00.913Z,15.50
2022-08-23T00:20:49.172Z,15.50
2022-08-23T00:23:37.417Z,15.50
2022-08-23T00:26:26.016Z,15.50
2022-08-23T00:29:16.816Z,15.60
2022-08-23T00:32:08.842Z,15.60
2022-08-23T00:34:58.650Z,15.50
2022-08-23T00:37:51.606Z,15.60
2022-08-23T00:40:55.011Z,15.50
2022-08-23T00:44:01.636Z,15.50
2022-08-23T00:47:14.738Z,15.50
2022-08-23T00:50:23.838Z,15.50
2022-08-23T00:53:26.252Z,15.60
2022-08-23T00:56:18.011Z,15.60
2022-08-23T00:59:07.526Z,15.60
2022-08-23T01:01:55.269Z,15.60
2022-08-23T01:04:52.597Z,15.60
2022-08-23T01:07:49.064Z,15.60
2022-08-23T01:10:46.504Z,15.60
2022-08-23T01:13:50.501Z,15.60
2022-08-23T01:16:59.612Z,15.50
2022-08-23T01:20:12.998Z,15.50
2022-08-23T01:24:03.922Z,15.50
2022-08-23T01:26:52.531Z,15.60
2022-08-23T01:29:42.597Z,15.60
2022-08-23T01:32:30.377Z,15.60
2022-08-23T01:38:17.841Z,15.60
2022-08-23T01:41:07.176Z,15.60
2022-08-23T01:43:54.821Z,15.60
2022-08-23T01:46:45.601Z,15.60
2022-08-23T01:49:35.053Z,15.60
2022-08-23T01:52:22.920Z,15.60
2022-08-23T01:55:11.741Z,15.60
2022-08-23T01:58:03.887Z,15.60
2022-08-23T02:00:51.436Z,15.60
2022-08-23T02:03:39.013Z,15.60
2022-08-23T02:06:26.981Z,15.60
2022-08-23T02:09:17.291Z,15.60
2022-08-23T02:12:06.416Z,15.60
2022-08-23T02:14:53.976Z,15.60
2022-08-23T02:17:42.072Z,15.60
2022-08-23T02:20:29.572Z,15.60
2022-08-23T02:23:18.819Z,15.60
2022-08-23T02:26:07.196Z,15.60
2022-08-23T02:28:56.473Z,15.50
2022-08-23T02:31:44.978Z,15.50
2022-08-23T02:34:33.692Z,15.50
2022-08-23T02:37:21.177Z,15.40
2022-08-23T02:40:10.032Z,15.40
2022-08-23T02:43:00.181Z,15.40
2022-08-23T02:45:47.812Z,15.40
2022-08-23T02:48:37.678Z,15.30
2022-08-23T02:51:26.346Z,15.30
2022-08-23T02:54:14.297Z,15.30
2022-08-23T02:57:02.574Z,15.30
2022-08-23T02:59:50.578Z,15.20
2022-08-23T03:02:39.326Z,15.20
2022-08-23T03:05:27.072Z,15.20
2022-08-23T03:08:15.017Z,15.20
2022-08-23T03:11:03.111Z,15.20
2022-08-23T03:13:57.679Z,15.20
2022-08-23T03:16:45.812Z,15.20
2022-08-23T03:19:35.271Z,15.20
2022-08-23T03:22:23.456Z,15.20
2022-08-23T03:25:11.486Z,15.20
2022-08-23T03:28:03.648Z,15.20
2022-08-23T03:30:51.813Z,15.20
2022-08-23T03:33:40.448Z,15.20
2022-08-23T03:36:28.441Z,15.20
2022-08-23T03:39:16.697Z,15.20
2022-08-23T03:42:05.052Z,15.20
2022-08-23T03:44:56.700Z,15.20
2022-08-23T03:47:49.693Z,15.20
2022-08-23T03:50:37.573Z,15.20
2022-08-23T03:53:25.132Z,15.20
2022-08-23T03:56:22.588Z,15.20
2022-08-23T03:59:11.750Z,15.20
2022-08-23T04:01:59.673Z,15.20
2022-08-23T04:04:47.204Z,15.20
2022-08-23T04:07:36.260Z,15.20
2022-08-23T04:10:24.197Z,15.20
2022-08-23T04:13:11.746Z,15.20
2022-08-23T04:16:02.952Z,15.20
2022-08-23T04:18:50.537Z,15.20
2022-08-23T04:21:43.285Z,15.20
2022-08-23T04:24:30.848Z,15.20
2022-08-23T04:27:18.649Z,15.20
2022-08-23T04:30:07.259Z,15.20
2022-08-23T04:32:56.152Z,15.20
2022-08-23T04:35:44.649Z,15.10
2022-08-23T04:38:32.952Z,15.10
2022-08-23T04:41:39.278Z,15.10
2022-08-23T04:44:27.267Z,15.10
2022-08-23T04:47:15.508Z,15.10
2022-08-23T04:50:04.047Z,15.10
2022-08-23T04:52:51.493Z,15.10
2022-08-23T04:55:39.317Z,15.10
2022-08-23T04:58:27.528Z,15.10
2022-08-23T05:01:16.504Z,15.20
2022-08-23T05:04:05.757Z,15.20
2022-08-23T05:06:53.349Z,15.20
2022-08-23T05:09:41.123Z,15.20
2022-08-23T05:12:29.513Z,15.20
2022-08-23T05:15:17.852Z,15.20
2022-08-23T05:18:05.988Z,15.30
2022-08-23T05:20:54.160Z,15.30
2022-08-23T05:23:41.788Z,15.30
2022-08-23T05:26:30.018Z,15.30
2022-08-23T05:29:17.608Z,15.30
2022-08-23T05:32:05.313Z,15.30
2022-08-23T05:34:52.934Z,15.40
2022-08-23T05:37:40.437Z,15.40
2022-08-23T05:40:29.202Z,15.50
2022-08-23T05:43:22.241Z,15.50
2022-08-23T05:46:14.470Z,15.60
2022-08-23T05:49:02.609Z,15.60
2022-08-23T05:51:51.789Z,15.60
2022-08-23T05:54:40.601Z,15.60
2022-08-23T05:57:28.297Z,15.60
2022-08-23T06:00:16.059Z,15.70
2022-08-23T06:03:03.859Z,15.70
2022-08-23T06:05:59.128Z,15.60
2022-08-23T06:08:48.897Z,15.60
2022-08-23T06:11:36.822Z,15.70
2022-08-23T06:14:24.445Z,15.70
2022-08-23T06:17:12.472Z,15.70
2022-08-23T06:20:00.194Z,15.70
2022-08-23T06:22:47.853Z,15.70
2022-08-23T06:25:40.093Z,15.80
2022-08-23T06:28:30.370Z,15.80
2022-08-23T06:31:40.022Z,15.80
2022-08-23T06:34:33.726Z,15.80
2022-08-23T06:37:22.192Z,15.90
2022-08-23T06:40:11.616Z,15.80
2022-08-23T06:42:59.270Z,15.90
2022-08-23T06:45:54.887Z,15.90
2022-08-23T06:48:47.432Z,15.90
2022-08-23T06:51:46.208Z,16.00
2022-08-23T06:54:35.928Z,16.00
2022-08-23T06:57:24.245Z,16.00
2022-08-23T07:00:12.953Z,16.00
2022-08-23T07:03:00.850Z,16.00
2022-08-23T07:05:48.673Z,16.10
2022-08-23T07:08:36.462Z,16.20
2022-08-23T07:11:25.559Z,16.10
2022-08-23T07:14:17.699Z,16.00
2022-08-23T07:17:06.321Z,16.00
2022-08-23T07:19:54.138Z,16.00
2022-08-23T07:22:41.658Z,16.00
2022-08-23T07:25:29.348Z,16.10
2022-08-23T07:28:17.033Z,16.10
2022-08-23T07:31:22.507Z,16.10
2022-08-23T07:34:10.915Z,16.10
2022-08-23T07:36:58.377Z,16.10
2022-08-23T07:39:46.155Z,16.20
2022-08-23T07:42:33.857Z,16.20
2022-08-23T07:45:23.048Z,16.20
2022-08-23T07:48:14.337Z,16.30
2022-08-23T07:51:12.092Z,16.30
2022-08-23T07:54:02.358Z,16.30
2022-08-23T07:56:49.827Z,16.30
2022-08-23T07:59:37.517Z,16.20
2022-08-23T08:02:25.052Z,16.20
2022-08-23T08:05:12.672Z,16.30
2022-08-23T08:08:01.822Z,16.20
2022-08-23T08:10:55.474Z,16.30
2022-08-23T08:13:46.312Z,16.30
2022-08-23T08:16:39.933Z,16.30
2022-08-23T08:19:27.412Z,16.30
2022-08-23T08:22:14.952Z,16.30
2022-08-23T08:25:02.857Z,16.30
2022-08-23T08:27:50.512Z,16.30
2022-08-23T08:30:39.457Z,16.30
2022-08-23T08:33:30.888Z,16.30
2022-08-23T08:36:47.733Z,16.20
2022-08-23T08:39:35.472Z,16.20
2022-08-23T08:43:07.231Z,16.20
2022-08-23T08:46:16.459Z,16.20
2022-08-23T08:49:05.844Z,16.10
2022-08-23T08:52:11.412Z,16.10
2022-08-23T08:55:13.689Z,16.10
2022-08-23T08:58:05.273Z,16.10
2022-08-23T09:00:56.451Z,16.10
2022-08-23T09:03:46.240Z,16.10
2022-08-23T09:07:07.538Z,16.10
2022-08-23T09:10:34.058Z,16.10
2022-08-23T09:14:04.398Z,16.00
2022-08-23T09:17:05.602Z,16.00
2022-08-23T09:20:00.653Z,15.90
2022-08-23T09:22:58.277Z,15.90
2022-08-23T09:26:03.739Z,15.90
2022-08-23T09:29:07.349Z,15.90
2022-08-23T09:32:02.751Z,15.90
2022-08-23T09:34:50.747Z,16.00
2022-08-23T09:38:03.202Z,15.90
2022-08-23T09:40:52.637Z,16.00
2022-08-23T09:43:48.414Z,16.10
2022-08-23T09:46:44.389Z,16.10
2022-08-23T09:49:31.992Z,16.10
2022-08-23T09:52:35.288Z,16.20
2022-08-23T09:55:39.012Z,16.30
2022-08-23T09:58:43.758Z,16.30
2022-08-23T10:01:39.147Z,16.40
2022-08-23T10:04:47.269Z,16.40
2022-08-23T10:07:46.603Z,16.50
2022-08-23T10:10:50.761Z,16.50
2022-08-23T10:13:43.128Z,16.50
2022-08-23T10:17:00.873Z,16.60
2022-08-23T10:20:24.311Z,16.60
2022-08-23T10:23:34.134Z,16.60
2022-08-23T10:26:32.697Z,16.70
2022-08-23T10:29:48.707Z,16.80
2022-08-23T10:33:15.262Z,16.80
2022-08-23T10:36:23.752Z,17.00
2022-08-23T10:39:26.728Z,17.00
2022-08-23T10:42:34.274Z,17.00
2022-08-23T10:45:29.782Z,17.00
2022-08-23T10:48:32.806Z,17.00
2022-08-23T10:51:43.274Z,17.10
2022-08-23T10:55:00.318Z,17.10
2022-08-23T10:57:49.617Z,17.10
2022-08-23T11:00:38.352Z,17.10
2022-08-23T11:03:37.382Z,17.00
2022-08-23T11:06:37.161Z,17.10
2022-08-23T11:09:25.913Z,17.10
2022-08-23T11:12:34.429Z,17.10
2022-08-23T11:15:44.949Z,17.10
2022-08-23T11:18:48.789Z,17.10
2022-08-23T11:21:40.773Z,17.20
2022-08-23T11:24:48.299Z,17.30
2022-08-23T11:27:44.836Z,17.30
2022-08-23T11:30:32.415Z,17.20
2022-08-23T11:33:42.776Z,17.20
2022-08-23T11:36:33.892Z,17.20
2022-08-23T11:39:25.542Z,17.20
2022-08-23T11:42:19.440Z,17.20
2022-08-23T11:45:27.853Z,17.20
2022-08-23T11:48:43.825Z,17.30
2022-08-23T11:52:30.762Z,17.30
2022-08-23T11:56:03.147Z,17.30
2022-08-23T11:59:16.753Z,17.30
2022-08-23T12:02:39.061Z,17.40
2022-08-23T12:05:34.713Z,17.50
2022-08-23T12:08:33.195Z,17.40
2022-08-23T12:11:25.877Z,17.40
2022-08-23T12:14:31.452Z,17.50
2022-08-23T12:17:20.407Z,17.40
2022-08-23T12:20:25.597Z,17.40
2022-08-23T12:23:20.978Z,17.50
2022-08-23T12:26:28.589Z,17.50
2022-08-23T12:29:42.227Z,17.60
2022-08-23T12:32:55.215Z,17.60
2022-08-23T12:35:57.640Z,17.60
2022-08-23T12:39:18.758Z,17.60
2022-08-23T12:42:45.412Z,17.60
2022-08-23T12:45:49.128Z,17.70
2022-08-23T12:48:47.205Z,17.80
2022-08-23T12:51:49.992Z,17.80
2022-08-23T12:54:46.707Z,17.80
2022-08-23T12:57:42.777Z,17.90
2022-08-23T13:00:53.907Z,17.90
2022-08-23T13:03:48.522Z,17.80
2022-08-23T13:06:47.492Z,17.80
2022-08-23T13:09:42.433Z,17.80
2022-08-23T13:12:33.157Z,17.80
2022-08-23T13:15:54.166Z,17.80
2022-08-23T13:18:45.940Z,17.80
2022-08-23T13:21:40.105Z,17.70
2022-08-23T13:24:39.286Z,17.70
2022-08-23T13:27:56.321Z,17.70
2022-08-23T13:31:08.569Z,17.70
2022-08-23T13:33:56.146Z,17.70
2022-08-23T13:36:45.152Z,17.70
2022-08-23T13:39:34.362Z,17.70
2022-08-23T13:42:51.054Z,17.70
2022-08-23T13:45:51.643Z,17.70
2022-08-23T13:49:09.258Z,17.70
2022-08-23T13:52:17.226Z,17.80
2022-08-23T13:55:07.473Z,17.80
2022-08-23T13:57:57.712Z,17.70
2022-08-23T14:00:55.204Z,17.70
2022-08-23T14:03:43.600Z,17.70
2022-08-23T14:06:31.112Z,17.70
2022-08-23T14:09:20.112Z,17.70
2022-08-23T14:12:15.296Z,17.70
2022-08-23T14:15:05.487Z,17.80
2022-08-23T14:17:55.522Z,17.80
2022-08-23T14:20:46.092Z,17.80
2022-08-23T14:23:34.069Z,17.80
2022-08-23T14:26:23.351Z,17.90
2022-08-23T14:29:12.073Z,17.80
2022-08-23T14:32:04.594Z,17.90
2022-08-23T14:34:52.193Z,17.90
2022-08-23T14:40:57.626Z,18.00
2022-08-23T14:43:45.795Z,18.00
2022-08-23T14:46:34.024Z,18.00
2022-08-23T14:49:21.813Z,18.00
2022-08-23T14:52:10.292Z,18.00
2022-08-23T14:54:58.142Z,18.10
2022-08-23T14:57:45.782Z,18.20
2022-08-23T15:00:35.992Z,18.30
2022-08-23T15:03:27.395Z,18.30
2022-08-23T15:06:17.339Z,18.40
2022-08-23T15:09:04.954Z,18.50
2022-08-23T15:15:00.787Z,18.70
2022-08-23T15:17:52.733Z,18.70
2022-08-23T15:20:41.123Z,18.80
2022-08-23T15:23:28.752Z,18.70
2022-08-23T15:26:24.147Z,18.70
2022-08-23T15:29:11.717Z,18.70
2022-08-23T15:31:59.307Z,18.70
2022-08-23T15:34:46.968Z,18.70
2022-08-23T15:37:35.727Z,18.70
2022-08-23T15:40:25.630Z,18.70
2022-08-23T15:43:13.448Z,18.60
2022-08-23T15:46:10.378Z,18.70
2022-08-23T15:49:05.207Z,18.70
2022-08-23T15:51:53.053Z,18.70
2022-08-23T15:54:41.273Z,18.70
2022-08-23T15:57:29.528Z,18.70
2022-08-23T16:00:20.725Z,18.70
2022-08-23T16:03:19.852Z,18.60
2022-08-23T16:06:12.053Z,18.60
2022-08-23T16:08:59.683Z,18.60
2022-08-23T16:11:47.659Z,18.50
2022-08-23T16:14:36.877Z,18.40
2022-08-23T16:17:24.646Z,18.40
2022-08-23T16:20:12.888Z,18.40
2022-08-23T16:23:00.525Z,18.40
2022-08-23T16:25:48.332Z,18.40
2022-08-23T16:28:35.877Z,18.40
2022-08-23T16:31:38.489Z,18.40
2022-08-23T16:34:27.572Z,18.50
2022-08-23T16:37:15.072Z,18.50
2022-08-23T16:40:06.504Z,18.50
2022-08-23T16:42:54.282Z,18.40
2022-08-23T16:45:41.972Z,18.40
2022-08-23T16:48:29.560Z,18.40
2022-08-23T16:51:18.381Z,18.40
2022-08-23T16:54:08.451Z,18.40
2022-08-23T16:56:56.778Z,18.30
2022-08-23T16:59:47.112Z,18.20
2022-08-23T17:02:37.739Z,18.20
2022-08-23T17:05:25.597Z,18.20
2022-08-23T17:08:13.211Z,18.20
2022-08-23T17:11:03.346Z,18.20
2022-08-23T17:13:51.053Z,18.20
2022-08-23T17:16:39.259Z,18.10
2022-08-23T17:19:26.828Z,18.10
2022-08-23T17:22:14.472Z,18.10
2022-08-23T17:25:02.105Z,18.10
2022-08-23T17:27:53.366Z,18.10
2022-08-23T17:30:41.336Z,18.10
2022-08-23T17:33:28.931Z,18.00
2022-08-23T17:36:42.913Z,18.00
2022-08-23T17:39:35.137Z,18.00
2022-08-23T17:42:22.812Z,18.00
2022-08-23T17:45:11.153Z,18.00
2022-08-23T17:47:58.652Z,17.90
2022-08-23T17:50:46.970Z,18.00
2022-08-23T17:53:34.462Z,18.00
2022-08-23T17:56:21.992Z,18.00
2022-08-23T17:59:09.629Z,18.00
2022-08-23T18:01:57.512Z,18.00
2022-08-23T18:04:45.440Z,18.00
2022-08-23T18:07:33.212Z,18.00
2022-08-23T18:10:21.667Z,18.00
2022-08-23T18:13:09.177Z,18.00
2022-08-23T18:15:56.792Z,18.00
2022-08-23T18:18:44.358Z,18.00
2022-08-23T18:21:33.172Z,18.10
2022-08-23T18:24:21.239Z,18.00
2022-08-23T18:27:27.666Z,17.90
2022-08-23T18:30:16.216Z,17.90
2022-08-23T18:33:06.477Z,17.80
2022-08-23T18:35:54.130Z,17.80
2022-08-23T18:38:41.717Z,17.70
2022-08-23T18:41:29.257Z,17.60
2022-08-23T18:44:16.792Z,17.70
2022-08-23T18:47:04.746Z,17.70
2022-08-23T18:49:52.697Z,17.60
2022-08-23T18:52:40.568Z,17.60
2022-08-23T18:55:28.017Z,17.60
2022-08-23T18:58:16.252Z,17.50
2022-08-23T19:01:06.532Z,17.50
2022-08-23T19:03:57.468Z,17.50
2022-08-23T19:06:45.641Z,17.60
2022-08-23T19:09:33.206Z,17.60
2022-08-23T19:12:20.631Z,17.60
2022-08-23T19:15:09.127Z,17.60
2022-08-23T19:17:58.176Z,17.60
2022-08-23T19:20:46.226Z,17.50
2022-08-23T19:23:35.067Z,17.50
2022-08-23T19:26:31.832Z,17.50
2022-08-23T19:29:20.678Z,17.30
2022-08-23T19:32:08.315Z,17.50
2022-08-23T19:34:55.842Z,17.40
2022-08-23T19:37:43.773Z,17.50
2022-08-23T19:40:31.337Z,17.40
2022-08-23T19:43:19.031Z,17.40
2022-08-23T19:46:15.964Z,17.40
2022-08-23T19:49:07.139Z,17.40
2022-08-23T19:51:55.007Z,17.40
2022-08-23T19:54:42.522Z,17.40
2022-08-23T19:57:31.431Z,17.40
2022-08-23T20:00:19.934Z,17.40
2022-08-23T20:03:07.621Z,17.40
2022-08-23T20:05:55.186Z,17.40
2022-08-23T20:08:42.647Z,17.40
2022-08-23T20:11:32.171Z,17.30
2022-08-23T20:14:21.947Z,17.30
2022-08-23T20:17:10.337Z,17.30
2022-08-23T20:19:58.167Z,17.30
2022-08-23T20:23:04.546Z,17.20
2022-08-23T20:25:52.448Z,17.20
2022-08-23T20:28:40.172Z,17.20
2022-08-23T20:31:59.778Z,17.20
2022-08-23T20:34:47.257Z,17.20
2022-08-23T20:37:36.052Z,17.20
2022-08-23T20:40:26.033Z,17.20
2022-08-23T20:43:13.617Z,17.20
2022-08-23T20:46:03.982Z,17.10
2022-08-23T20:48:53.041Z,17.10
2022-08-23T20:51:42.102Z,17.10
2022-08-23T20:54:30.874Z,17.10
2022-08-23T20:57:18.482Z,17.10
2022-08-23T21:00:08.210Z,17.10
2022-08-23T21:02:55.783Z,17.10
2022-08-23T21:05:43.347Z,17.10
2022-08-23T21:08:32.060Z,17.00
2022-08-23T21:11:27.103Z,17.00
2022-08-23T21:14:17.246Z,17.00
2022-08-23T21:17:06.817Z,17.00
2022-08-23T21:19:54.600Z,17.00
2022-08-23T21:22:42.212Z,17.00
2022-08-23T21:25:29.717Z,17.10
2022-08-23T21:28:17.188Z,17.10
2022-08-23T21:31:16.386Z,17.10
2022-08-23T21:34:05.123Z,17.10
2022-08-23T21:36:52.613Z,17.10
2022-08-23T21:39:40.577Z,17.10
2022-08-23T21:42:28.153Z,17.10
2022-08-23T21:45:15.647Z,17.10
2022-08-23T21:48:04.807Z,17.10
2022-08-23T21:50:53.152Z,17.10
2022-08-23T21:53:40.637Z,17.10
2022-08-23T21:56:28.293Z,17.10
2022-08-23T21:59:18.453Z,17.10
2022-08-23T22:02:06.081Z,17.10
2022-08-23T22:04:54.318Z,17.10
2022-08-23T22:07:42.563Z,17.10
2022-08-23T22:10:30.051Z,17.10
2022-08-23T22:13:17.689Z,17.10
2022-08-23T22:16:07.156Z,17.10
2022-08-23T22:18:54.819Z,17.10
2022-08-23T22:21:45.154Z,17.10
2022-08-23T22:24:32.844Z,17.10
2022-08-23T22:27:21.353Z,17.10
2022-08-23T22:30:10.308Z,17.10
2022-08-23T22:32:57.773Z,17.10
2022-08-23T22:35:48.831Z,17.10
2022-08-23T22:38:38.175Z,17.10
2022-08-23T22:41:29.199Z,17.10
2022-08-23T22:44:17.833Z,17.10
2022-08-23T22:47:05.604Z,17.00
2022-08-23T22:49:53.863Z,17.00
2022-08-23T22:52:42.269Z,17.00
2022-08-23T22:55:29.773Z,17.00
2022-08-23T22:58:18.308Z,17.00
2022-08-23T23:01:07.720Z,17.00
2022-08-23T23:04:02.773Z,17.00
2022-08-23T23:06:51.393Z,17.00
2022-08-23T23:09:39.080Z,17.00
2022-08-23T23:12:26.683Z,17.00
2022-08-23T23:15:14.459Z,17.00
2022-08-23T23:18:02.078Z,17.00
2022-08-23T23:20:50.535Z,17.10
2022-08-23T23:23:38.364Z,17.10
2022-08-23T23:26:26.084Z,17.00
2022-08-23T23:29:14.163Z,17.00
2022-08-23T23:32:01.889Z,17.00
2022-08-23T23:34:49.442Z,17.00
2022-08-23T23:37:37.779Z,17.00
2022-08-23T23:40:26.969Z,17.00
2022-08-23T23:43:14.593Z,17.00
2022-08-23T23:46:16.217Z,17.00
2022-08-23T23:49:03.948Z,17.00
2022-08-23T23:51:51.438Z,16.90
2022-08-23T23:54:40.948Z,16.90
2022-08-23T23:57:28.573Z,16.80
